createdAt,value
2023-12-15T00:00:24.308Z,60.50
2023-12-15T00:02:51.479Z,60.00
2023-12-15T00:05:18.578Z,59.90
2023-12-15T00:07:45.549Z,59.70
2023-12-15T00:10:13.469Z,59.80
2023-12-15T00:12:40.436Z,59.80
2023-12-15T00:15:08.028Z,59.90
2023-12-15T00:17:35.471Z,59.70
2023-12-15T00:20:02.918Z,59.60
2023-12-15T00:22:29.847Z,59.70
2023-12-15T00:24:56.769Z,59.80
2023-12-15T00:27:23.692Z,59.90
2023-12-15T00:29:50.598Z,59.80
2023-12-15T00:32:17.570Z,60.00
2023-12-15T00:34:44.604Z,59.80
2023-12-15T00:37:11.508Z,59.90
2023-12-15T00:39:38.828Z,59.60
2023-12-15T00:42:08.764Z,60.10
2023-12-15T00:44:35.908Z,59.90
2023-12-15T00:47:04.576Z,60.10
2023-12-15T00:49:31.558Z,60.20
2023-12-15T00:51:59.082Z,60.20
2023-12-15T00:54:25.972Z,60.10
2023-12-15T00:56:52.864Z,60.10
2023-12-15T00:59:19.923Z,60.30
2023-12-15T01:01:46.844Z,60.50
2023-12-15T01:04:13.773Z,60.50
2023-12-15T01:06:40.754Z,60.60
2023-12-15T01:09:07.729Z,60.70
2023-12-15T01:11:34.768Z,60.60
2023-12-15T01:14:01.762Z,60.60
2023-12-15T01:16:28.714Z,60.90
2023-12-15T01:18:55.844Z,60.70
2023-12-15T01:21:22.843Z,60.50
2023-12-15T01:23:50.039Z,60.60
2023-12-15T01:26:17.046Z,60.50
2023-12-15T01:28:43.961Z,60.70
2023-12-15T01:31:10.883Z,60.50
2023-12-15T01:33:37.805Z,60.40
2023-12-15T01:36:05.056Z,60.30
2023-12-15T01:38:32.023Z,60.20
2023-12-15T01:40:58.956Z,60.30
2023-12-15T01:43:26.030Z,60.30
2023-12-15T01:45:58.685Z,60.20
2023-12-15T01:48:32.443Z,60.20
2023-12-15T01:50:59.457Z,60.20
2023-12-15T01:53:26.952Z,60.10
2023-12-15T01:55:53.944Z,60.30
2023-12-15T01:58:21.030Z,60.40
2023-12-15T02:00:48.758Z,60.50
2023-12-15T02:03:15.729Z,60.70
2023-12-15T02:05:42.743Z,60.50
2023-12-15T02:08:09.725Z,60.40
2023-12-15T02:10:39.977Z,60.50
2023-12-15T02:13:07.835Z,60.30
2023-12-15T02:15:35.136Z,60.20
2023-12-15T02:18:02.613Z,60.20
2023-12-15T02:20:29.856Z,60.30
2023-12-15T02:22:59.025Z,60.30
2023-12-15T02:25:26.524Z,60.30
2023-12-15T02:27:54.775Z,60.40
2023-12-15T02:30:21.965Z,60.30
2023-12-15T02:32:49.566Z,60.40
2023-12-15T02:35:18.171Z,60.30
2023-12-15T02:37:45.359Z,60.30
2023-12-15T02:40:12.669Z,60.40
2023-12-15T02:42:39.673Z,60.20
2023-12-15T02:45:07.162Z,60.30
2023-12-15T02:47:34.435Z,60.40
2023-12-15T02:50:01.782Z,60.20
2023-12-15T02:52:28.799Z,60.10
2023-12-15T02:54:55.775Z,60.20
2023-12-15T02:57:22.685Z,60.20
2023-12-15T02:59:49.601Z,60.10
2023-12-15T03:02:16.538Z,60.30
2023-12-15T03:04:43.445Z,60.00
2023-12-15T03:07:10.335Z,60.20
2023-12-15T03:09:37.226Z,60.20
2023-12-15T03:12:04.475Z,60.10
2023-12-15T03:14:31.481Z,60.10
2023-12-15T03:16:58.434Z,60.10
2023-12-15T03:19:25.511Z,60.20
2023-12-15T03:21:52.454Z,60.10
2023-12-15T03:24:19.633Z,60.00
2023-12-15T03:26:46.527Z,60.00
2023-12-15T03:29:13.500Z,60.10
2023-12-15T03:31:42.807Z,60.30
2023-12-15T03:34:10.194Z,60.20
2023-12-15T03:36:40.446Z,60.30
2023-12-15T03:39:08.486Z,60.50
2023-12-15T03:41:35.734Z,60.40
2023-12-15T03:44:02.823Z,60.60
2023-12-15T03:46:29.754Z,60.40
2023-12-15T03:48:56.802Z,60.40
2023-12-15T03:51:23.822Z,60.30
2023-12-15T03:53:51.702Z,60.50
2023-12-15T03:56:28.085Z,60.30
2023-12-15T03:58:55.518Z,59.80
2023-12-15T04:01:22.572Z,59.90
2023-12-15T04:03:49.527Z,59.90
2023-12-15T04:06:16.516Z,60.10
2023-12-15T04:08:44.107Z,60.00
2023-12-15T04:11:11.246Z,60.00
2023-12-15T04:13:38.393Z,60.00
2023-12-15T04:16:06.888Z,60.00
2023-12-15T04:18:35.029Z,59.70
2023-12-15T04:21:05.088Z,59.70
2023-12-15T04:23:32.727Z,59.90
2023-12-15T04:26:00.211Z,59.90
2023-12-15T04:28:27.573Z,59.80
2023-12-15T04:30:54.820Z,59.80
2023-12-15T04:33:21.916Z,59.80
2023-12-15T04:35:48.934Z,59.20
2023-12-15T04:38:15.926Z,59.00
2023-12-15T04:40:43.572Z,59.30
2023-12-15T04:43:10.891Z,59.40
2023-12-15T04:45:38.186Z,59.50
2023-12-15T04:48:05.470Z,59.50
2023-12-15T04:50:34.511Z,59.20
2023-12-15T04:53:03.120Z,59.20
2023-12-15T04:55:30.041Z,59.30
2023-12-15T04:57:57.851Z,59.00
2023-12-15T05:00:24.980Z,59.00
2023-12-15T05:02:52.115Z,59.20
2023-12-15T05:05:20.205Z,59.40
2023-12-15T05:07:48.081Z,59.30
2023-12-15T05:10:15.108Z,58.90
2023-12-15T05:12:42.114Z,58.80
2023-12-15T05:15:09.255Z,58.70
2023-12-15T05:17:36.482Z,58.80
2023-12-15T05:20:03.816Z,59.30
2023-12-15T05:22:30.835Z,59.50
2023-12-15T05:24:57.836Z,59.30
2023-12-15T05:27:25.347Z,59.20
2023-12-15T05:29:52.438Z,59.00
2023-12-15T05:32:19.841Z,58.70
2023-12-15T05:34:46.979Z,58.70
2023-12-15T05:37:14.557Z,58.80
2023-12-15T05:39:45.902Z,58.80
2023-12-15T05:42:13.267Z,59.00
2023-12-15T05:44:41.841Z,59.00
2023-12-15T05:47:09.408Z,59.00
2023-12-15T05:49:42.609Z,59.20
2023-12-15T05:52:11.340Z,59.50
2023-12-15T05:54:42.140Z,60.00
2023-12-15T05:57:11.987Z,60.10
2023-12-15T05:59:40.880Z,60.10
2023-12-15T06:02:07.945Z,60.20
2023-12-15T06:04:35.113Z,60.20
2023-12-15T06:07:03.484Z,60.40
2023-12-15T06:09:30.410Z,60.60
2023-12-15T06:11:57.338Z,60.60
2023-12-15T06:14:24.508Z,60.70
2023-12-15T06:16:52.946Z,60.80
2023-12-15T06:19:19.897Z,60.90
2023-12-15T06:21:46.829Z,60.70
2023-12-15T06:24:13.696Z,60.70
2023-12-15T06:26:40.665Z,60.90
2023-12-15T06:29:07.701Z,61.10
2023-12-15T06:31:34.584Z,61.20
2023-12-15T06:34:01.576Z,61.20
2023-12-15T06:36:30.689Z,60.90
2023-12-15T06:38:58.067Z,60.90
2023-12-15T06:41:25.350Z,60.80
2023-12-15T06:43:52.471Z,60.90
2023-12-15T06:46:20.259Z,60.70
2023-12-15T06:48:47.524Z,60.80
2023-12-15T06:51:14.496Z,60.90
2023-12-15T06:53:41.989Z,60.90
2023-12-15T06:56:09.421Z,61.10
2023-12-15T06:58:36.432Z,61.70
2023-12-15T07:01:03.781Z,61.10
2023-12-15T07:03:30.915Z,61.20
2023-12-15T07:05:58.067Z,61.30
2023-12-15T07:08:25.024Z,61.40
2023-12-15T07:10:52.012Z,61.50
2023-12-15T07:13:19.046Z,61.60
2023-12-15T07:15:45.938Z,61.50
2023-12-15T07:18:13.029Z,61.70
2023-12-15T07:20:40.039Z,61.40
2023-12-15T07:23:07.057Z,61.70
2023-12-15T07:25:34.494Z,61.60
2023-12-15T07:28:01.445Z,61.60
2023-12-15T07:30:28.503Z,61.70
2023-12-15T07:32:55.713Z,61.60
2023-12-15T07:35:29.583Z,61.70
2023-12-15T07:38:00.041Z,61.80
2023-12-15T07:40:27.126Z,61.90
2023-12-15T07:42:54.016Z,61.50
2023-12-15T07:45:21.062Z,61.70
2023-12-15T07:47:48.240Z,61.70
2023-12-15T07:50:15.675Z,61.30
2023-12-15T07:52:42.633Z,61.00
2023-12-15T07:55:09.915Z,60.20
2023-12-15T07:57:37.177Z,59.00
2023-12-15T08:00:07.235Z,58.00
2023-12-15T08:02:34.557Z,56.60
2023-12-15T08:05:01.613Z,55.40
2023-12-15T08:07:28.841Z,53.90
2023-12-15T08:09:55.836Z,53.50
2023-12-15T08:12:22.885Z,53.30
2023-12-15T08:14:49.909Z,53.10
2023-12-15T08:17:17.056Z,53.00
2023-12-15T08:19:46.131Z,52.60
2023-12-15T08:22:13.105Z,52.60
2023-12-15T08:24:40.662Z,52.10
2023-12-15T08:27:07.679Z,52.00
2023-12-15T08:29:34.761Z,51.80
2023-12-15T08:32:02.046Z,51.30
2023-12-15T08:34:29.204Z,50.90
2023-12-15T08:36:56.292Z,51.10
2023-12-15T08:39:23.227Z,50.80
2023-12-15T08:41:50.303Z,50.60
2023-12-15T08:44:24.371Z,50.60
2023-12-15T08:46:56.541Z,50.70
2023-12-15T08:49:23.847Z,51.00
2023-12-15T08:51:51.356Z,50.90
2023-12-15T08:54:18.531Z,51.10
2023-12-15T08:56:45.817Z,51.70
2023-12-15T08:59:12.979Z,52.30
2023-12-15T09:01:39.974Z,52.50
2023-12-15T09:04:06.919Z,52.80
2023-12-15T09:06:38.375Z,53.10
2023-12-15T09:09:09.840Z,53.60
2023-12-15T09:11:36.998Z,54.10
2023-12-15T09:14:04.097Z,54.70
2023-12-15T09:16:31.224Z,55.20
2023-12-15T09:18:58.287Z,55.40
2023-12-15T09:21:25.330Z,55.80
2023-12-15T09:23:54.738Z,56.10
2023-12-15T09:26:21.663Z,56.10
2023-12-15T09:28:48.540Z,56.40
2023-12-15T09:31:15.471Z,56.70
2023-12-15T09:33:42.521Z,57.00
2023-12-15T09:36:10.126Z,57.40
2023-12-15T09:38:37.062Z,57.50
2023-12-15T09:41:04.331Z,57.60
2023-12-15T09:43:31.365Z,57.60
2023-12-15T09:46:00.333Z,57.20
2023-12-15T09:48:29.691Z,57.30
2023-12-15T09:51:01.426Z,57.10
2023-12-15T09:53:33.243Z,57.10
2023-12-15T09:56:00.189Z,56.50
2023-12-15T09:58:27.177Z,56.60
2023-12-15T10:00:54.090Z,56.50
2023-12-15T10:03:21.173Z,56.20
2023-12-15T10:05:48.225Z,56.60
2023-12-15T10:08:15.297Z,56.30
2023-12-15T10:10:42.765Z,56.50
2023-12-15T10:13:09.832Z,56.20
2023-12-15T10:15:37.936Z,56.70
2023-12-15T10:18:05.053Z,56.20
2023-12-15T10:20:32.195Z,55.70
2023-12-15T10:23:03.494Z,56.00
2023-12-15T10:25:31.449Z,56.00
2023-12-15T10:28:00.299Z,55.80
2023-12-15T10:30:28.434Z,56.20
2023-12-15T10:32:59.312Z,55.80
2023-12-15T10:35:29.501Z,55.90
2023-12-15T10:37:56.844Z,55.30
2023-12-15T10:40:23.956Z,54.60
2023-12-15T10:42:52.618Z,53.80
2023-12-15T10:45:21.646Z,52.80
2023-12-15T10:47:52.383Z,52.30
2023-12-15T10:50:20.697Z,52.50
2023-12-15T10:52:49.499Z,52.20
2023-12-15T10:55:16.778Z,51.20
2023-12-15T10:57:43.855Z,50.90
2023-12-15T11:00:11.929Z,50.40
2023-12-15T11:02:41.129Z,49.30
2023-12-15T11:05:11.855Z,49.00
2023-12-15T11:07:41.217Z,48.30
2023-12-15T11:10:10.631Z,47.50
2023-12-15T11:12:41.143Z,46.50
2023-12-15T11:15:12.515Z,46.40
2023-12-15T11:17:42.853Z,45.40
2023-12-15T11:20:32.937Z,45.30
2023-12-15T11:23:13.375Z,45.30
2023-12-15T11:26:01.202Z,45.30
2023-12-15T11:28:28.756Z,44.30
2023-12-15T11:30:56.536Z,44.00
2023-12-15T11:33:39.588Z,43.90
2023-12-15T11:36:08.604Z,44.10
2023-12-15T11:38:39.572Z,44.30
2023-12-15T11:41:08.211Z,44.20
2023-12-15T11:43:39.327Z,44.70
2023-12-15T11:46:06.847Z,44.60
2023-12-15T11:48:36.496Z,44.60
2023-12-15T11:51:04.617Z,43.70
2023-12-15T11:53:33.994Z,43.80
2023-12-15T11:56:03.117Z,44.60
2023-12-15T11:58:30.413Z,45.00
2023-12-15T12:00:57.605Z,45.40
2023-12-15T12:03:24.761Z,45.30
2023-12-15T12:05:55.273Z,45.50
2023-12-15T12:08:24.349Z,43.80
2023-12-15T12:10:55.623Z,42.20
2023-12-15T12:13:32.416Z,40.60
2023-12-15T12:15:59.784Z,40.00
2023-12-15T12:18:27.736Z,37.80
2023-12-15T12:20:59.209Z,36.80
2023-12-15T12:23:39.354Z,36.00
2023-12-15T12:26:11.025Z,34.40
2023-12-15T12:28:49.864Z,33.50
2023-12-15T12:31:17.646Z,33.60
2023-12-15T12:33:45.248Z,33.60
2023-12-15T12:36:12.375Z,33.10
2023-12-15T12:38:39.697Z,33.40
2023-12-15T12:41:07.825Z,34.30
2023-12-15T12:43:35.638Z,33.90
2023-12-15T12:46:13.053Z,34.50
2023-12-15T12:48:40.469Z,34.70
2023-12-15T12:51:07.619Z,35.40
2023-12-15T12:53:34.586Z,36.20
2023-12-15T12:56:01.516Z,36.10
2023-12-15T12:58:28.473Z,36.00
2023-12-15T13:00:55.530Z,35.70
2023-12-15T13:03:22.814Z,35.60
2023-12-15T13:05:50.448Z,35.00
2023-12-15T13:08:17.536Z,34.50
2023-12-15T13:10:44.675Z,34.20
2023-12-15T13:13:14.110Z,34.60
2023-12-15T13:15:41.475Z,34.20
2023-12-15T13:18:11.223Z,33.70
2023-12-15T13:20:40.230Z,34.00
2023-12-15T13:23:10.342Z,34.40
2023-12-15T13:25:37.618Z,35.80
2023-12-15T13:28:06.806Z,35.50
2023-12-15T13:30:33.844Z,36.00
2023-12-15T13:33:01.265Z,35.60
2023-12-15T13:35:28.337Z,35.10
2023-12-15T13:37:55.412Z,35.70
2023-12-15T13:40:23.353Z,35.50
2023-12-15T13:42:50.261Z,36.60
2023-12-15T13:45:19.172Z,36.40
2023-12-15T13:47:46.264Z,36.90
2023-12-15T13:50:13.330Z,36.70
2023-12-15T13:52:40.512Z,36.80
2023-12-15T13:55:08.293Z,37.30
2023-12-15T13:57:35.331Z,37.10
2023-12-15T14:00:02.194Z,37.10
2023-12-15T14:02:29.104Z,37.40
2023-12-15T14:04:56.044Z,36.60
2023-12-15T14:07:23.181Z,36.70
2023-12-15T14:09:50.092Z,37.10
2023-12-15T14:12:17.158Z,38.00
2023-12-15T14:14:45.239Z,38.60
2023-12-15T14:17:12.361Z,39.00
2023-12-15T14:19:39.515Z,38.20
2023-12-15T14:22:08.456Z,38.40
2023-12-15T14:24:35.502Z,38.90
2023-12-15T14:27:04.528Z,37.80
2023-12-15T14:29:32.185Z,38.30
2023-12-15T14:31:59.267Z,38.70
2023-12-15T14:34:26.592Z,39.10
2023-12-15T14:36:53.700Z,39.10
2023-12-15T14:39:20.728Z,39.10
2023-12-15T14:41:47.640Z,38.50
2023-12-15T14:44:14.682Z,38.90
2023-12-15T14:46:41.773Z,39.00
2023-12-15T14:49:08.841Z,38.90
2023-12-15T14:51:35.863Z,39.30
2023-12-15T14:54:03.519Z,39.80
2023-12-15T14:56:30.486Z,39.60
2023-12-15T14:58:57.468Z,39.70
2023-12-15T15:01:24.472Z,39.80
2023-12-15T15:03:51.441Z,40.30
2023-12-15T15:06:27.057Z,40.40
2023-12-15T15:09:00.837Z,40.20
2023-12-15T15:11:28.222Z,39.70
2023-12-15T15:13:55.376Z,39.60
2023-12-15T15:16:22.289Z,40.10
2023-12-15T15:18:49.461Z,40.00
2023-12-15T15:21:16.397Z,40.10
2023-12-15T15:23:43.625Z,40.40
2023-12-15T15:26:10.650Z,40.20
2023-12-15T15:28:37.593Z,40.10
2023-12-15T15:31:04.883Z,40.00
2023-12-15T15:33:32.060Z,40.10
2023-12-15T15:35:59.310Z,40.40
2023-12-15T15:38:27.878Z,40.50
2023-12-15T15:40:55.050Z,40.60
2023-12-15T15:43:22.077Z,41.20
2023-12-15T15:45:50.102Z,41.30
2023-12-15T15:48:17.007Z,41.30
2023-12-15T15:50:44.842Z,41.60
2023-12-15T15:53:12.159Z,41.70
2023-12-15T15:55:39.169Z,41.40
2023-12-15T15:58:06.083Z,41.50
2023-12-15T16:00:33.107Z,41.90
2023-12-15T16:03:00.065Z,42.00
2023-12-15T16:05:26.995Z,42.30
2023-12-15T16:07:54.066Z,42.60
2023-12-15T16:10:20.965Z,43.20
2023-12-15T16:12:47.936Z,42.40
2023-12-15T16:15:14.971Z,42.70
2023-12-15T16:17:42.290Z,42.30
2023-12-15T16:20:10.319Z,43.00
2023-12-15T16:22:37.325Z,43.20
2023-12-15T16:25:04.448Z,42.80
2023-12-15T16:27:31.486Z,43.30
2023-12-15T16:30:01.562Z,43.40
2023-12-15T16:32:31.375Z,43.50
2023-12-15T16:34:58.980Z,43.90
2023-12-15T16:37:25.868Z,44.20
2023-12-15T16:39:53.101Z,44.30
2023-12-15T16:42:21.146Z,44.70
2023-12-15T16:44:50.088Z,44.50
2023-12-15T16:47:18.153Z,44.70
2023-12-15T16:49:45.596Z,45.00
2023-12-15T16:52:12.706Z,44.90
2023-12-15T16:54:39.715Z,44.50
2023-12-15T16:57:07.007Z,44.90
2023-12-15T16:59:41.040Z,45.20
2023-12-15T17:02:09.458Z,45.00
2023-12-15T17:04:37.261Z,45.40
2023-12-15T17:07:04.482Z,45.50
2023-12-15T17:09:32.238Z,45.80
2023-12-15T17:12:00.596Z,45.90
2023-12-15T17:14:28.046Z,46.00
2023-12-15T17:16:55.319Z,46.20
2023-12-15T17:19:22.880Z,46.30
2023-12-15T17:21:50.373Z,46.50
2023-12-15T17:24:20.432Z,46.30
2023-12-15T17:26:50.324Z,46.40
2023-12-15T17:29:17.531Z,46.80
2023-12-15T17:31:44.779Z,47.00
2023-12-15T17:34:12.645Z,47.10
2023-12-15T17:36:40.371Z,47.20
2023-12-15T17:39:07.990Z,47.40
2023-12-15T17:41:35.355Z,47.50
2023-12-15T17:44:02.395Z,47.10
2023-12-15T17:46:34.901Z,47.30
2023-12-15T17:49:02.202Z,47.30
2023-12-15T17:51:30.070Z,47.40
2023-12-15T17:53:57.082Z,47.70
2023-12-15T17:56:23.999Z,47.60
2023-12-15T17:58:50.848Z,47.90
2023-12-15T18:01:18.497Z,48.30
2023-12-15T18:03:45.734Z,48.40
2023-12-15T18:06:12.800Z,48.40
2023-12-15T18:08:39.743Z,48.70
2023-12-15T18:11:06.693Z,48.90
2023-12-15T18:13:34.554Z,48.40
2023-12-15T18:16:01.960Z,48.80
2023-12-15T18:18:29.102Z,49.10
2023-12-15T18:20:56.090Z,49.00
2023-12-15T18:23:23.171Z,49.10
2023-12-15T18:25:50.102Z,49.40
2023-12-15T18:28:22.969Z,49.40
2023-12-15T18:30:52.452Z,49.60
2023-12-15T18:33:19.875Z,49.60
2023-12-15T18:35:46.994Z,50.00
2023-12-15T18:38:14.019Z,49.60
2023-12-15T18:40:43.434Z,50.10
2023-12-15T18:43:10.618Z,50.10
2023-12-15T18:45:37.853Z,50.00
2023-12-15T18:48:05.010Z,50.30
2023-12-15T18:50:31.920Z,50.30
2023-12-15T18:52:58.961Z,50.30
2023-12-15T18:55:26.302Z,50.50
2023-12-15T18:57:53.508Z,50.40
2023-12-15T19:00:22.696Z,50.50
2023-12-15T19:02:51.287Z,51.00
2023-12-15T19:05:18.651Z,50.90
2023-12-15T19:07:47.120Z,51.20
2023-12-15T19:10:14.979Z,51.30
2023-12-15T19:12:46.303Z,51.30
2023-12-15T19:15:14.048Z,51.60
2023-12-15T19:17:41.469Z,51.60
2023-12-15T19:20:09.593Z,51.60
2023-12-15T19:22:37.438Z,51.70
2023-12-15T19:25:04.653Z,51.60
2023-12-15T19:27:32.660Z,51.80
2023-12-15T19:29:59.705Z,51.90
2023-12-15T19:32:26.734Z,52.00
2023-12-15T19:34:54.054Z,52.10
2023-12-15T19:37:21.355Z,52.10
2023-12-15T19:39:48.479Z,52.40
2023-12-15T19:42:15.487Z,52.50
2023-12-15T19:44:43.391Z,52.40
2023-12-15T19:47:10.542Z,52.50
2023-12-15T19:49:37.448Z,52.80
2023-12-15T19:52:04.741Z,52.90
2023-12-15T19:54:32.000Z,52.90
2023-12-15T19:56:58.959Z,53.00
2023-12-15T19:59:27.193Z,53.10
2023-12-15T20:01:57.710Z,53.30
2023-12-15T20:04:25.051Z,53.40
2023-12-15T20:06:52.346Z,53.70
2023-12-15T20:09:19.618Z,53.70
2023-12-15T20:11:46.666Z,53.70
2023-12-15T20:14:14.103Z,53.70
2023-12-15T20:16:41.980Z,53.70
2023-12-15T20:19:10.681Z,53.50
2023-12-15T20:21:38.157Z,53.60
2023-12-15T20:24:05.420Z,53.20
2023-12-15T20:26:32.300Z,53.40
2023-12-15T20:29:01.555Z,53.20
2023-12-15T20:31:28.955Z,53.50
2023-12-15T20:34:02.729Z,53.50
2023-12-15T20:36:30.421Z,53.70
2023-12-15T20:38:57.586Z,53.50
2023-12-15T20:41:24.565Z,53.40
2023-12-15T20:43:52.716Z,53.00
2023-12-15T20:46:19.828Z,52.80
2023-12-15T20:48:47.000Z,52.90
2023-12-15T20:51:23.100Z,52.40
2023-12-15T20:53:50.137Z,51.90
2023-12-15T20:56:27.408Z,52.10
2023-12-15T20:58:55.261Z,51.00
2023-12-15T21:01:22.642Z,51.00
2023-12-15T21:03:50.016Z,50.60
2023-12-15T21:06:24.769Z,50.70
2023-12-15T21:08:55.683Z,50.20
2023-12-15T21:11:23.044Z,50.00
2023-12-15T21:13:53.206Z,49.90
2023-12-15T21:16:28.344Z,50.00
2023-12-15T21:18:56.330Z,49.70
2023-12-15T21:21:31.874Z,49.50
2023-12-15T21:23:59.259Z,49.20
2023-12-15T21:26:26.829Z,49.30
2023-12-15T21:28:56.044Z,48.70
2023-12-15T21:31:23.179Z,48.60
2023-12-15T21:33:50.424Z,48.60
2023-12-15T21:36:17.386Z,48.50
2023-12-15T21:38:44.297Z,48.50
2023-12-15T21:41:14.936Z,48.30
2023-12-15T21:43:41.822Z,47.70
2023-12-15T21:46:08.746Z,47.80
2023-12-15T21:48:35.721Z,47.30
2023-12-15T21:51:02.784Z,47.20
2023-12-15T21:53:29.806Z,47.40
2023-12-15T21:55:56.749Z,47.20
2023-12-15T21:58:23.649Z,46.80
2023-12-15T22:00:51.088Z,46.90
2023-12-15T22:03:19.107Z,47.10
2023-12-15T22:05:46.036Z,47.20
2023-12-15T22:08:12.990Z,46.80
2023-12-15T22:10:39.838Z,46.50
2023-12-15T22:13:08.291Z,46.40
2023-12-15T22:15:35.694Z,45.60
2023-12-15T22:18:02.692Z,45.50
2023-12-15T22:20:31.501Z,45.50
2023-12-15T22:22:58.631Z,45.80
2023-12-15T22:25:25.642Z,45.30
2023-12-15T22:27:52.578Z,45.90
2023-12-15T22:30:25.435Z,46.00
2023-12-15T22:32:53.180Z,45.90
2023-12-15T22:35:20.143Z,45.50
2023-12-15T22:37:47.275Z,45.10
2023-12-15T22:40:14.367Z,45.00
2023-12-15T22:42:41.549Z,44.60
2023-12-15T22:45:08.969Z,44.80
2023-12-15T22:47:37.164Z,44.80
2023-12-15T22:50:06.077Z,44.70
2023-12-15T22:52:33.250Z,43.90
2023-12-15T22:55:00.347Z,44.10
2023-12-15T22:57:27.353Z,44.00
2023-12-15T22:59:54.295Z,44.20
2023-12-15T23:02:21.340Z,43.80
2023-12-15T23:04:48.727Z,43.80
2023-12-15T23:07:17.054Z,44.00
2023-12-15T23:09:45.627Z,44.30
2023-12-15T23:12:12.516Z,44.10
2023-12-15T23:14:41.374Z,43.90
2023-12-15T23:17:09.769Z,43.50
2023-12-15T23:19:37.012Z,43.80
2023-12-15T23:22:04.331Z,43.90
2023-12-15T23:24:31.277Z,43.90
2023-12-15T23:26:58.168Z,43.10
2023-12-15T23:29:25.120Z,43.00
2023-12-15T23:31:52.023Z,42.50
2023-12-15T23:34:20.536Z,42.50
2023-12-15T23:36:47.879Z,42.50
2023-12-15T23:39:14.838Z,43.10
2023-12-15T23:41:41.833Z,42.90
2023-12-15T23:44:09.521Z,42.80
2023-12-15T23:46:37.354Z,43.00
2023-12-15T23:49:04.408Z,42.50
2023-12-15T23:51:31.492Z,43.10
2023-12-15T23:54:01.637Z,43.30
2023-12-15T23:56:28.585Z,43.00
2023-12-15T23:58:55.546Z,42.50
